Time;durP1;ratioP1;P1;durP2;ratioP2;P2;SDS_P1;SDS_P2;PMS_P1;PMS_P2;Temp;Humidity;BMP_temperature;BMP_pressure;BME280_temperature;BME280_humidity;BME280_pressure;Samples;Min_cycle;Max_cycle;Signal;HPM_P1;HPM_P2
2022/03/23 00:01:02;;;;;;;21.02;9.82;;;12.00;96.60;;;;;;5007900;28;20034;-58
2022/03/23 00:03:30;;;;;;;15.95;9.15;;;12.00;96.60;;;;;;5032427;28;20041;-58
2022/03/23 00:05:58;;;;;;;17.27;8.70;;;12.00;96.70;;;;;;5024779;28;20048;-60
2022/03/23 00:08:26;;;;;;;17.85;9.82;;;12.00;96.80;;;;;;5019401;28;20091;-58
2022/03/23 00:10:54;;;;;;;16.77;9.82;;;12.00;96.80;;;;;;5033332;28;20110;-58
2022/03/23 00:13:22;;;;;;;15.75;10.10;;;12.00;96.90;;;;;;5035301;28;20420;-58
2022/03/23 00:15:50;;;;;;;14.30;9.32;;;11.90;96.90;;;;;;5027346;28;20045;-58
2022/03/23 00:18:17;;;;;;;12.68;8.90;;;11.90;97.00;;;;;;5044975;28;20068;-57
2022/03/23 00:20:45;;;;;;;15.75;10.15;;;11.90;97.00;;;;;;5026876;28;20041;-61
2022/03/23 00:23:15;;;;;;;15.38;9.20;;;11.90;97.10;;;;;;5017548;28;20554;-57
2022/03/23 00:25:42;;;;;;;14.18;9.63;;;11.90;97.20;;;;;;5033345;28;20060;-58
2022/03/23 00:28:10;;;;;;;16.92;9.52;;;11.80;97.20;;;;;;5046226;28;20041;-57
2022/03/23 00:30:38;;;;;;;17.30;9.18;;;11.90;97.30;;;;;;5023756;28;20060;-57
2022/03/23 00:33:22;;;;;;;15.57;8.90;;;11.90;97.30;;;;;;5017206;28;20056;-59
2022/03/23 00:35:49;;;;;;;17.65;9.27;;;11.90;97.40;;;;;;5005429;28;20480;-57
2022/03/23 00:38:18;;;;;;;22.25;9.98;;;11.90;97.50;;;;;;5028373;28;20040;-57
2022/03/23 00:40:46;;;;;;;14.95;9.98;;;11.90;97.60;;;;;;5011794;28;20046;-60
2022/03/23 00:43:15;;;;;;;22.55;10.95;;;11.80;97.70;;;;;;5034443;28;20408;-58
2022/03/23 00:45:43;;;;;;;19.08;10.35;;;11.80;97.90;;;;;;5033728;28;20041;-58
2022/03/23 00:48:13;;;;;;;16.77;9.30;;;11.80;98.10;;;;;;5009225;28;20131;-57
2022/03/23 00:50:42;;;;;;;22.85;11.15;;;11.80;98.30;;;;;;5010933;28;20046;-58
2022/03/23 00:53:09;;;;;;;22.60;10.75;;;11.80;98.50;;;;;;5034447;28;20037;-57
2022/03/23 00:55:37;;;;;;;19.55;11.70;;;11.80;98.60;;;;;;5012600;28;20071;-59
2022/03/23 00:58:04;;;;;;;18.25;10.48;;;11.80;98.90;;;;;;5016651;28;20047;-58
2022/03/23 01:00:32;;;;;;;19.40;11.23;;;11.80;98.90;;;;;;5020564;28;20045;-58
2022/03/23 01:03:00;;;;;;;19.40;9.57;;;11.80;99.20;;;;;;5034018;28;20401;-58
2022/03/23 01:05:28;;;;;;;16.15;9.35;;;11.70;99.10;;;;;;5000255;28;20049;-56
2022/03/23 01:07:55;;;;;;;20.13;10.13;;;11.80;99.20;;;;;;5017192;28;20037;-59
2022/03/23 01:10:24;;;;;;;17.23;9.65;;;11.70;99.30;;;;;;5017469;28;20069;-57
2022/03/23 01:12:54;;;;;;;14.70;9.68;;;11.70;99.40;;;;;;5017691;28;20403;-57
2022/03/23 01:15:24;;;;;;;18.15;10.80;;;11.70;99.40;;;;;;5016524;28;20065;-57
2022/03/23 01:17:52;;;;;;;21.33;10.52;;;11.70;99.50;;;;;;5017274;28;20140;-57
2022/03/23 01:20:22;;;;;;;21.05;9.77;;;11.70;99.50;;;;;;5017426;28;20050;-57
2022/03/23 01:22:50;;;;;;;14.82;8.48;;;11.60;99.60;;;;;;5017609;28;20088;-56
2022/03/23 01:25:18;;;;;;;15.60;8.65;;;11.60;99.70;;;;;;5017221;28;20034;-57
2022/03/23 01:27:46;;;;;;;15.57;8.90;;;11.60;99.80;;;;;;5001226;28;20476;-57
2022/03/23 01:30:16;;;;;;;19.27;9.25;;;11.60;99.90;;;;;;5017379;28;20141;-57
2022/03/23 01:32:47;;;;;;;19.30;9.45;;;11.60;99.90;;;;;;5000977;28;20033;-57
2022/03/23 01:35:15;;;;;;;17.15;8.68;;;11.60;99.90;;;;;;5017328;28;20080;-57
2022/03/23 01:37:46;;;;;;;17.25;9.98;;;11.60;99.90;;;;;;5017782;28;20068;-57
2022/03/23 01:40:14;;;;;;;13.60;8.52;;;11.60;99.90;;;;;;5017048;28;20458;-57
2022/03/23 01:42:41;;;;;;;18.40;9.80;;;11.60;99.90;;;;;;5016828;28;20064;-57
2022/03/23 01:45:10;;;;;;;13.05;7.57;;;11.60;99.90;;;;;;5017268;28;20091;-57
2022/03/23 01:47:38;;;;;;;13.25;8.43;;;11.60;99.80;;;;;;5016973;28;20045;-57
2022/03/23 01:50:07;;;;;;;16.95;8.05;;;11.60;99.70;;;;;;5016897;28;20053;-57
2022/03/23 01:52:36;;;;;;;14.75;8.38;;;11.60;99.70;;;;;;5016948;28;20492;-57
2022/03/23 01:55:08;;;;;;;18.73;9.80;;;11.50;99.70;;;;;;5016709;28;20128;-57
2022/03/23 01:57:38;;;;;;;20.40;8.73;;;11.50;99.70;;;;;;5000749;28;20045;-57
2022/03/23 02:00:07;;;;;;;17.15;7.68;;;11.50;99.70;;;;;;5034567;28;20038;-57
2022/03/23 02:02:41;;;;;;;14.07;8.35;;;11.40;99.90;;;;;;5000291;28;20132;-57
2022/03/23 02:05:14;;;;;;;17.30;8.52;;;11.40;99.90;;;;;;5016702;28;20045;-57
2022/03/23 02:07:49;;;;;;;20.17;7.72;;;11.40;99.90;;;;;;5016702;28;20121;-57
2022/03/23 02:10:17;;;;;;;18.63;9.38;;;11.40;99.90;;;;;;5016643;28;20148;-57
2022/03/23 02:12:54;;;;;;;16.35;8.75;;;11.40;99.90;;;;;;5000215;28;20484;-57
2022/03/23 02:15:24;;;;;;;17.85;9.15;;;11.40;99.90;;;;;;4999801;28;20049;-58
2022/03/23 02:17:53;;;;;;;14.85;9.02;;;11.40;99.90;;;;;;5033888;28;20068;-57
2022/03/23 02:20:21;;;;;;;21.05;8.80;;;11.40;99.90;;;;;;4999935;28;20084;-57
2022/03/23 02:22:49;;;;;;;15.07;7.50;;;11.40;99.90;;;;;;5016141;28;20045;-57
2022/03/23 02:25:23;;;;;;;19.60;9.65;;;11.30;99.90;;;;;;5016355;28;20484;-59
2022/03/23 02:27:53;;;;;;;14.98;8.43;;;11.30;99.90;;;;;;5016266;28;20594;-57
2022/03/23 02:30:21;;;;;;;14.73;8.70;;;11.30;99.90;;;;;;5016367;28;20068;-57
2022/03/23 02:32:49;;;;;;;15.65;8.85;;;11.30;99.90;;;;;;5016071;28;20045;-57
2022/03/23 02:35:17;;;;;;;17.23;7.70;;;11.30;99.90;;;;;;5033607;28;20091;-56
2022/03/23 02:37:45;;;;;;;16.13;9.82;;;11.20;99.90;;;;;;5016233;28;20438;-57
2022/03/23 02:40:13;;;;;;;16.45;8.88;;;11.20;99.90;;;;;;4999735;28;20448;-57
2022/03/23 02:42:41;;;;;;;17.02;9.35;;;11.20;99.90;;;;;;5015918;28;20136;-57
2022/03/23 02:45:14;;;;;;;16.50;8.98;;;11.20;99.90;;;;;;5015937;28;20507;-56
2022/03/23 02:47:44;;;;;;;15.23;8.38;;;11.20;99.90;;;;;;5016098;28;20137;-57
2022/03/23 02:50:11;;;;;;;22.38;8.70;;;11.20;99.90;;;;;;5033610;28;20041;-57
2022/03/23 03:01:52;;;;;;;15.57;9.25;;;11.20;99.90;;;;;;5033619;28;20428;-57
2022/03/23 03:01:54;;;;;;;13.57;7.75;;;11.20;99.90;;;;;;5033526;28;20041;-57
2022/03/23 03:04:23;;;;;;;12.38;7.78;;;11.20;99.90;;;;;;5026029;28;20399;-57
2022/03/23 03:06:51;;;;;;;16.27;8.55;;;11.20;99.90;;;;;;5033427;28;20058;-57
2022/03/23 03:09:21;;;;;;;14.63;9.60;;;11.10;99.90;;;;;;5033561;28;20107;-57
2022/03/23 03:11:49;;;;;;;15.23;9.88;;;11.20;99.90;;;;;;5016065;28;20080;-56
2022/03/23 03:14:17;;;;;;;16.90;9.63;;;11.10;99.90;;;;;;5033317;28;20045;-57
2022/03/23 03:16:44;;;;;;;16.10;8.40;;;11.20;99.90;;;;;;5032182;28;20038;-57
2022/03/23 03:19:12;;;;;;;14.65;8.35;;;11.10;99.90;;;;;;5014716;28;20140;-57
2022/03/23 03:21:40;;;;;;;13.77;8.73;;;11.10;99.90;;;;;;5031907;28;20049;-57
2022/03/23 03:24:07;;;;;;;16.83;9.30;;;11.00;99.90;;;;;;5015647;28;20124;-57
2022/03/23 03:26:35;;;;;;;17.27;9.60;;;10.90;99.90;;;;;;5015566;28;20403;-57
2022/03/23 03:29:04;;;;;;;12.73;7.57;;;10.90;99.90;;;;;;5032881;28;20468;-56
2022/03/23 03:31:32;;;;;;;13.85;9.00;;;10.90;99.90;;;;;;5032088;28;20050;-57
2022/03/23 03:34:00;;;;;;;14.75;9.02;;;11.00;99.90;;;;;;5033035;28;20049;-57
2022/03/23 03:36:27;;;;;;;15.50;9.88;;;11.00;99.90;;;;;;5015786;28;20543;-56
2022/03/23 03:38:55;;;;;;;14.82;7.90;;;11.00;99.90;;;;;;5034841;28;20037;-57
2022/03/23 03:41:23;;;;;;;17.88;9.57;;;11.00;99.90;;;;;;5019261;28;20044;-57
2022/03/23 03:43:50;;;;;;;14.57;9.05;;;11.00;99.90;;;;;;5019234;28;20037;-57
2022/03/23 03:46:18;;;;;;;16.92;8.85;;;11.00;99.90;;;;;;5019223;28;20045;-57
2022/03/23 03:48:45;;;;;;;16.88;8.98;;;11.00;99.90;;;;;;5019215;28;20407;-56
2022/03/23 03:51:13;;;;;;;24.60;8.75;;;11.00;99.90;;;;;;5019150;28;20120;-56
2022/03/23 03:53:41;;;;;;;20.38;9.55;;;11.00;99.90;;;;;;5019208;28;20049;-57
2022/03/23 03:56:09;;;;;;;16.55;8.90;;;11.00;99.90;;;;;;5036578;28;20376;-57
2022/03/23 03:58:38;;;;;;;17.17;9.30;;;11.00;99.90;;;;;;5035286;28;20049;-57
2022/03/23 04:01:06;;;;;;;25.20;11.45;;;11.00;99.90;;;;;;5002516;28;20049;-57
2022/03/23 04:03:34;;;;;;;17.38;9.82;;;11.00;99.90;;;;;;5018914;28;20132;-55
2022/03/23 04:06:05;;;;;;;15.85;8.23;;;11.00;99.90;;;;;;5018791;28;20069;-57
2022/03/23 04:08:33;;;;;;;15.80;9.23;;;11.00;99.90;;;;;;5018794;28;20053;-57
2022/03/23 04:11:03;;;;;;;17.08;9.88;;;10.90;99.90;;;;;;5018788;28;20050;-57
2022/03/23 04:13:31;;;;;;;14.18;7.82;;;10.90;99.90;;;;;;5018807;28;20557;-57
2022/03/23 04:15:58;;;;;;;15.68;9.00;;;10.90;99.90;;;;;;5018890;28;20557;-57
2022/03/23 04:18:25;;;;;;;16.98;8.50;;;10.90;99.90;;;;;;5036149;28;20037;-57
2022/03/23 04:20:53;;;;;;;11.95;8.52;;;10.90;99.90;;;;;;5035984;28;20053;-57
2022/03/23 04:23:20;;;;;;;14.68;8.70;;;10.80;99.90;;;;;;5002271;28;20124;-57
2022/03/23 04:25:48;;;;;;;17.95;10.30;;;10.80;99.90;;;;;;5036019;28;20179;-57
2022/03/23 04:28:16;;;;;;;14.65;8.55;;;10.80;99.90;;;;;;5018414;28;20045;-57
2022/03/23 04:30:43;;;;;;;11.93;8.35;;;10.80;99.90;;;;;;5018266;28;20056;-57
2022/03/23 04:33:11;;;;;;;12.70;8.35;;;10.80;99.90;;;;;;5035939;28;20060;-57
2022/03/23 04:35:39;;;;;;;11.32;8.40;;;10.80;99.90;;;;;;5035993;28;20495;-57
2022/03/23 04:38:06;;;;;;;15.82;8.85;;;10.80;99.90;;;;;;5035871;28;20524;-56
2022/03/23 04:40:35;;;;;;;12.85;9.85;;;10.80;99.90;;;;;;5035729;28;20041;-57
2022/03/23 04:43:03;;;;;;;9.77;7.30;;;10.80;99.90;;;;;;5035706;28;20071;-57
2022/03/23 04:45:31;;;;;;;13.85;8.07;;;10.80;99.90;;;;;;5035880;28;20069;-57
2022/03/23 04:47:58;;;;;;;10.85;7.60;;;10.90;99.90;;;;;;5018256;28;20045;-58
2022/03/23 04:50:26;;;;;;;11.02;8.50;;;10.90;99.90;;;;;;5001565;28;20049;-58
2022/03/23 04:52:53;;;;;;;13.85;7.75;;;10.90;99.90;;;;;;5035569;28;20124;-58
2022/03/23 04:55:21;;;;;;;16.83;8.10;;;10.90;99.90;;;;;;5017984;28;20049;-57
2022/03/23 04:57:49;;;;;;;16.33;8.45;;;10.90;99.90;;;;;;5035665;28;20063;-57
2022/03/23 05:00:20;;;;;;;12.93;7.75;;;10.90;99.90;;;;;;5035448;28;20129;-57
2022/03/23 05:02:51;;;;;;;17.15;10.43;;;11.00;99.90;;;;;;5035489;28;20045;-57
2022/03/23 05:05:19;;;;;;;17.48;8.27;;;11.00;99.90;;;;;;5035275;28;20480;-57
2022/03/23 05:07:46;;;;;;;19.85;8.38;;;11.00;99.90;;;;;;5035174;28;20050;-57
2022/03/23 05:10:15;;;;;;;13.00;7.43;;;11.00;99.90;;;;;;5035192;28;20497;-57
2022/03/23 05:12:44;;;;;;;15.77;9.07;;;11.10;99.90;;;;;;5001235;28;20057;-57
2022/03/23 05:15:14;;;;;;;16.08;9.35;;;11.20;99.90;;;;;;5001322;28;20046;-57
2022/03/23 05:17:42;;;;;;;15.20;7.90;;;11.20;99.90;;;;;;5035112;28;20042;-56
2022/03/23 05:20:10;;;;;;;15.73;8.93;;;11.30;99.90;;;;;;5017253;28;20566;-57
2022/03/23 05:22:38;;;;;;;13.32;7.88;;;11.40;99.90;;;;;;5017435;28;20096;-57
2022/03/23 05:25:07;;;;;;;15.10;8.48;;;11.50;99.90;;;;;;5034844;28;20046;-57
2022/03/23 05:27:36;;;;;;;16.05;8.63;;;11.60;99.90;;;;;;5017246;28;20569;-57
2022/03/23 05:30:09;;;;;;;19.77;9.00;;;11.70;99.90;;;;;;5034813;28;20049;-57
2022/03/23 05:32:37;;;;;;;12.48;8.02;;;11.90;99.90;;;;;;5034861;28;20128;-57
2022/03/23 05:35:05;;;;;;;14.13;7.80;;;12.00;99.90;;;;;;5017076;28;20044;-56
2022/03/23 05:37:33;;;;;;;9.85;8.20;;;12.10;99.90;;;;;;5000657;28;20446;-57
2022/03/23 05:40:04;;;;;;;14.18;8.38;;;12.30;99.90;;;;;;5033640;28;20115;-57
2022/03/23 05:42:32;;;;;;;17.55;9.43;;;12.40;99.80;;;;;;5000896;28;20053;-57
2022/03/23 05:44:59;;;;;;;17.42;8.77;;;12.60;99.60;;;;;;5017121;28;20043;-57
2022/03/23 05:47:27;;;;;;;14.85;8.18;;;12.70;99.40;;;;;;5034393;28;20037;-57
2022/03/23 05:49:54;;;;;;;12.57;8.10;;;12.80;99.50;;;;;;5034288;28;20181;-57
2022/03/23 05:52:22;;;;;;;16.13;9.18;;;12.90;99.50;;;;;;5034405;28;20069;-58
2022/03/23 05:54:52;;;;;;;17.00;10.65;;;13.00;99.60;;;;;;5034292;28;20049;-57
2022/03/23 05:57:20;;;;;;;14.73;9.57;;;13.20;99.70;;;;;;5033310;28;20045;-57
2022/03/23 05:59:48;;;;;;;12.48;7.35;;;13.30;99.50;;;;;;5016591;28;20096;-57
2022/03/23 06:02:16;;;;;;;13.25;8.38;;;13.50;99.30;;;;;;5033530;28;20049;-57
2022/03/23 06:04:43;;;;;;;12.88;7.07;;;13.70;99.10;;;;;;5033955;28;20065;-57
2022/03/23 06:07:11;;;;;;;15.35;9.15;;;13.80;99.00;;;;;;5034214;28;20129;-57
2022/03/23 06:09:39;;;;;;;15.40;8.98;;;14.00;98.70;;;;;;5033920;28;20069;-57
2022/03/23 06:12:11;;;;;;;12.98;7.55;;;14.10;98.50;;;;;;5016461;28;20044;-57
2022/03/23 06:14:42;;;;;;;12.25;7.75;;;14.20;98.40;;;;;;5016643;28;20527;-58
2022/03/23 06:17:10;;;;;;;13.30;8.13;;;14.40;98.20;;;;;;5032641;28;20140;-58
2022/03/23 06:19:38;;;;;;;14.55;9.00;;;14.50;97.80;;;;;;5015947;28;20103;-58
2022/03/23 06:22:06;;;;;;;11.45;8.00;;;14.60;97.80;;;;;;5033812;28;20411;-58
2022/03/23 06:24:34;;;;;;;14.80;8.30;;;14.80;97.70;;;;;;5016084;28;20411;-57
2022/03/23 06:27:01;;;;;;;20.35;8.63;;;14.90;97.50;;;;;;4999978;28;20053;-57
2022/03/23 06:29:29;;;;;;;12.27;7.50;;;15.10;97.30;;;;;;5016214;28;20037;-58
2022/03/23 06:31:56;;;;;;;15.68;7.70;;;15.20;97.00;;;;;;5010878;28;20038;-57
2022/03/23 06:34:24;;;;;;;12.48;6.78;;;15.40;96.70;;;;;;5022798;28;20527;-58
2022/03/23 06:36:55;;;;;;;26.15;9.20;;;15.60;96.60;;;;;;5014360;28;20140;-58
2022/03/23 06:39:22;;;;;;;10.20;7.47;;;15.80;96.50;;;;;;5026335;28;20039;-58
2022/03/23 06:41:50;;;;;;;13.30;7.80;;;16.00;96.20;;;;;;5014740;28;20045;-58
2022/03/23 06:44:17;;;;;;;13.27;8.25;;;16.10;96.00;;;;;;5025043;28;20099;-58
2022/03/23 06:46:45;;;;;;;15.13;7.68;;;16.30;95.70;;;;;;5031797;28;20521;-58
2022/03/23 06:49:13;;;;;;;11.90;6.57;;;16.50;94.90;;;;;;5005967;28;20049;-59
2022/03/23 06:51:41;;;;;;;13.90;7.18;;;16.60;94.10;;;;;;5014703;28;20048;-58
2022/03/23 06:54:08;;;;;;;12.90;7.45;;;16.80;93.70;;;;;;4985690;28;20041;-60
2022/03/23 06:56:36;;;;;;;14.68;7.22;;;16.80;93.20;;;;;;5017697;28;20060;-58
2022/03/23 06:59:04;;;;;;;10.15;5.93;;;16.70;90.20;;;;;;5013741;28;20143;-58
2022/03/23 07:01:31;;;;;;;13.63;5.95;;;16.70;87.90;;;;;;4997793;28;20369;-57
2022/03/23 07:03:59;;;;;;;14.48;5.72;;;16.60;85.50;;;;;;5003104;28;20041;-58
2022/03/23 07:06:26;;;;;;;11.18;4.93;;;16.60;84.70;;;;;;5025813;28;20124;-57
2022/03/23 07:11:40;;;;;;;20.55;6.78;;;16.80;85.80;;;;;;5032349;28;20045;-58
2022/03/23 07:14:08;;;;;;;16.73;6.25;;;17.00;84.30;;;;;;5012147;28;20045;-60
2022/03/23 07:16:35;;;;;;;13.35;5.63;;;16.70;83.40;;;;;;5000788;28;20144;-58
2022/03/23 07:19:04;;;;;;;12.80;4.80;;;16.80;84.40;;;;;;4999760;28;20037;-58
2022/03/23 07:21:32;;;;;;;14.35;6.05;;;16.90;84.60;;;;;;5017655;28;20042;-59
2022/03/23 07:23:59;;;;;;;9.30;5.30;;;17.00;83.90;;;;;;5000104;28;20038;-57
2022/03/23 07:26:28;;;;;;;14.27;5.18;;;17.10;82.60;;;;;;4967811;28;20388;-58
2022/03/23 07:28:56;;;;;;;17.35;5.68;;;17.10;83.00;;;;;;5017610;28;20038;-57
2022/03/23 07:31:23;;;;;;;14.10;6.57;;;17.10;81.20;;;;;;4999964;28;20049;-58
2022/03/23 07:33:51;;;;;;;13.00;6.07;;;17.10;80.20;;;;;;4999920;28;20046;-57
2022/03/23 07:36:19;;;;;;;13.93;6.00;;;16.80;79.00;;;;;;5017346;28;20038;-57
2022/03/23 07:38:46;;;;;;;14.13;5.93;;;16.90;79.30;;;;;;5017152;28;20037;-58
2022/03/23 07:41:13;;;;;;;11.88;4.82;;;17.10;79.30;;;;;;5017182;28;20137;-57
2022/03/23 07:43:41;;;;;;;11.15;4.97;;;17.40;78.90;;;;;;4999612;28;20084;-57
2022/03/23 07:46:09;;;;;;;18.13;5.20;;;17.50;77.80;;;;;;4999547;28;20047;-57
2022/03/23 07:48:36;;;;;;;16.60;5.57;;;17.50;76.50;;;;;;4999658;28;20511;-58
2022/03/23 07:51:04;;;;;;;13.85;4.93;;;17.70;76.30;;;;;;5016984;28;20125;-58
2022/03/23 07:53:32;;;;;;;11.75;4.70;;;17.60;76.60;;;;;;4999368;28;20041;-57
2022/03/23 07:55:59;;;;;;;9.40;4.40;;;17.70;76.50;;;;;;5017168;28;20488;-58
2022/03/23 07:58:28;;;;;;;11.02;5.40;;;17.50;75.80;;;;;;5016948;28;20038;-57
2022/03/23 08:00:56;;;;;;;9.73;4.82;;;17.60;75.30;;;;;;4999556;28;20034;-57
2022/03/23 08:03:24;;;;;;;13.27;5.18;;;17.70;75.30;;;;;;4999404;28;20041;-58
2022/03/23 08:05:52;;;;;;;11.00;4.85;;;17.70;72.30;;;;;;5016537;28;20073;-58
2022/03/23 08:08:20;;;;;;;9.30;4.47;;;17.70;71.70;;;;;;4999334;28;20050;-57
2022/03/23 08:10:47;;;;;;;12.20;5.10;;;17.50;70.10;;;;;;4983231;28;20080;-57
2022/03/23 08:13:17;;;;;;;13.77;6.50;;;17.50;72.30;;;;;;4999197;28;20046;-57
2022/03/23 08:15:45;;;;;;;8.50;4.70;;;17.50;73.10;;;;;;5016691;28;20061;-57
2022/03/23 08:18:15;;;;;;;6.05;4.82;;;17.60;67.50;;;;;;4967070;28;20447;-58
2022/03/23 08:20:43;;;;;;;17.00;5.90;;;17.70;68.20;;;;;;4998667;28;20046;-58
2022/03/23 08:23:15;;;;;;;11.07;4.80;;;17.80;70.30;;;;;;4999212;28;20476;-57
2022/03/23 08:25:43;;;;;;;9.57;3.03;;;17.80;69.50;;;;;;4998373;28;20033;-57
2022/03/23 08:28:14;;;;;;;9.05;4.63;;;17.70;59.60;;;;;;4999015;28;20050;-57
2022/03/23 08:30:43;;;;;;;12.43;3.88;;;17.50;60.90;;;;;;5016230;28;20068;-57
2022/03/23 08:33:11;;;;;;;7.63;4.55;;;17.50;62.20;;;;;;5016017;28;20093;-57
2022/03/23 08:35:39;;;;;;;9.23;3.78;;;17.50;63.10;;;;;;4998471;28;20045;-57
2022/03/23 08:38:07;;;;;;;10.13;5.18;;;17.60;64.00;;;;;;4998576;28;20392;-57
2022/03/23 08:40:36;;;;;;;11.25;4.10;;;17.80;65.40;;;;;;4998429;28;20045;-57
2022/03/23 08:43:04;;;;;;;11.20;4.65;;;17.90;65.70;;;;;;4998557;28;20040;-58
2022/03/23 08:45:31;;;;;;;13.30;4.65;;;18.10;66.20;;;;;;5015691;28;20053;-58
2022/03/23 08:48:00;;;;;;;11.85;4.50;;;18.10;65.60;;;;;;4998239;28;20156;-58
2022/03/23 08:50:28;;;;;;;13.02;4.80;;;18.20;66.10;;;;;;5015573;28;20570;-58
2022/03/23 08:52:56;;;;;;;9.73;5.45;;;18.20;65.40;;;;;;4998427;28;20050;-58
2022/03/23 08:55:25;;;;;;;10.32;5.18;;;18.30;67.00;;;;;;5015715;28;20068;-58
2022/03/23 08:57:53;;;;;;;12.48;5.68;;;18.40;67.80;;;;;;5015687;28;20515;-57
2022/03/23 09:00:22;;;;;;;12.63;5.13;;;18.50;68.40;;;;;;4998053;28;20399;-58
2022/03/23 09:02:49;;;;;;;9.95;5.88;;;18.50;68.10;;;;;;4998068;28;20522;-57
2022/03/23 09:05:19;;;;;;;11.10;5.07;;;18.50;67.40;;;;;;5015551;28;20369;-57
2022/03/23 09:07:46;;;;;;;11.52;5.47;;;18.40;65.10;;;;;;5015526;28;20041;-58
2022/03/23 09:10:15;;;;;;;7.70;4.85;;;18.50;65.60;;;;;;4997955;28;20056;-57
2022/03/23 09:12:44;;;;;;;13.75;4.28;;;18.40;63.30;;;;;;5015266;28;20046;-57
2022/03/23 09:15:13;;;;;;;10.15;3.92;;;18.50;64.20;;;;;;5015045;28;20050;-58
2022/03/23 09:17:42;;;;;;;13.90;4.50;;;18.60;64.00;;;;;;4997670;28;20484;-57
2022/03/23 09:20:12;;;;;;;8.18;4.85;;;18.60;65.10;;;;;;4981349;28;20050;-57
2022/03/23 09:22:40;;;;;;;8.55;4.05;;;18.80;64.80;;;;;;4997917;28;20132;-58
2022/03/23 09:25:14;;;;;;;6.90;4.60;;;18.80;63.30;;;;;;4998191;28;20042;-57
2022/03/23 09:27:43;;;;;;;8.05;3.53;;;18.70;63.60;;;;;;4997446;28;20595;-59
2022/03/23 09:30:13;;;;;;;8.88;4.35;;;18.70;63.20;;;;;;5015001;28;20451;-58
2022/03/23 09:32:42;;;;;;;12.23;5.00;;;18.70;62.20;;;;;;5015289;28;20034;-58
2022/03/23 09:35:11;;;;;;;8.45;3.33;;;18.70;62.60;;;;;;4997713;28;20049;-58
2022/03/23 09:37:48;;;;;;;10.52;4.55;;;18.80;62.10;;;;;;4996989;28;20478;-58
2022/03/23 09:40:30;;;;;;;10.90;3.90;;;18.90;61.80;;;;;;5003122;28;20033;-59
2022/03/23 09:43:04;;;;;;;12.30;4.55;;;19.10;61.70;;;;;;5015611;28;20049;-60
2022/03/23 09:48:09;;;;;;;9.82;3.70;;;19.20;60.80;;;;;;5005297;28;20121;-59
2022/03/23 09:50:39;;;;;;;13.35;4.55;;;19.20;60.80;;;;;;4997168;28;20117;-59
2022/03/23 09:53:07;;;;;;;12.38;4.30;;;18.90;60.40;;;;;;4997155;28;20420;-59
2022/03/23 09:55:36;;;;;;;10.32;5.50;;;18.80;61.00;;;;;;5014701;28;20096;-58
2022/03/23 09:58:06;;;;;;;8.18;4.03;;;18.60;59.70;;;;;;5014601;28;20045;-59
2022/03/23 10:00:42;;;;;;;8.55;4.20;;;18.60;59.00;;;;;;5014554;28;20038;-58
2022/03/23 10:03:12;;;;;;;6.60;3.35;;;18.60;59.30;;;;;;4997133;28;20085;-58
2022/03/23 10:06:13;;;;;;;9.15;4.30;;;18.60;58.40;;;;;;5014232;28;20038;-58
2022/03/23 10:09:03;;;;;;;8.23;4.40;;;18.60;59.40;;;;;;5014475;28;20045;-59
2022/03/23 10:11:52;;;;;;;7.60;4.00;;;18.70;58.70;;;;;;4997161;28;20393;-58
2022/03/23 10:14:31;;;;;;;8.10;4.30;;;18.90;60.30;;;;;;5014360;28;20449;-58
2022/03/23 10:17:26;;;;;;;21.52;6.93;;;18.90;59.80;;;;;;5014352;28;20571;-58
2022/03/23 10:19:55;;;;;;;11.65;5.15;;;18.80;60.70;;;;;;5013917;28;20050;-58
2022/03/23 10:22:27;;;;;;;7.75;3.95;;;18.90;59.90;;;;;;4996680;28;20129;-58
2022/03/23 10:24:55;;;;;;;7.55;3.83;;;18.80;61.00;;;;;;4996863;28;20456;-58
2022/03/23 10:27:25;;;;;;;11.50;4.82;;;18.90;60.70;;;;;;5014099;28;20096;-59
2022/03/23 10:29:52;;;;;;;8.68;5.15;;;18.90;61.90;;;;;;5013997;28;20041;-58
2022/03/23 10:32:21;;;;;;;8.25;4.18;;;19.00;61.10;;;;;;4996682;28;20583;-58
2022/03/23 10:34:54;;;;;;;18.23;5.32;;;19.10;63.60;;;;;;4996430;28;20034;-59
2022/03/23 10:37:33;;;;;;;12.23;4.55;;;19.20;63.10;;;;;;5014105;28;20042;-58
2022/03/23 10:40:07;;;;;;;8.63;4.15;;;19.30;63.00;;;;;;4996684;28;20085;-58
2022/03/23 10:42:37;;;;;;;18.48;4.78;;;19.30;64.20;;;;;;4980353;28;20054;-58
2022/03/23 10:45:13;;;;;;;20.90;6.90;;;19.20;64.50;;;;;;5013847;28;20042;-58
2022/03/23 10:47:41;;;;;;;17.17;4.82;;;19.20;62.50;;;;;;5013633;28;20085;-58
2022/03/23 10:50:20;;;;;;;12.57;4.78;;;19.20;63.20;;;;;;4996682;28;20042;-58
2022/03/23 10:52:52;;;;;;;7.80;4.18;;;19.10;64.40;;;;;;4996294;28;20049;-58
2022/03/23 10:55:22;;;;;;;9.63;3.97;;;19.10;65.80;;;;;;5013918;28;20053;-58
2022/03/23 10:58:02;;;;;;;11.75;4.88;;;19.00;65.10;;;;;;5013578;28;20046;-59
2022/03/23 11:00:30;;;;;;;11.65;4.65;;;18.80;64.80;;;;;;5014136;28;20050;-59
2022/03/23 11:02:59;;;;;;;8.00;4.25;;;18.80;65.10;;;;;;5013975;28;20123;-59
2022/03/23 11:05:34;;;;;;;6.78;4.45;;;18.80;66.50;;;;;;4996232;28;20452;-58
2022/03/23 11:08:18;;;;;;;13.13;4.00;;;18.70;66.70;;;;;;4996315;28;20038;-59
2022/03/23 11:16:46;;;;;;;8.93;4.65;;;18.70;66.80;;;;;;5013474;28;20100;-58
2022/03/23 11:19:19;;;;;;;11.90;4.68;;;18.60;67.30;;;;;;5013597;28;20052;-58
2022/03/23 11:22:11;;;;;;;8.07;4.05;;;18.60;67.40;;;;;;5013656;28;20057;-58
2022/03/23 11:24:41;;;;;;;22.00;4.95;;;18.60;67.60;;;;;;4979811;28;20137;-58
2022/03/23 11:27:19;;;;;;;10.32;3.90;;;18.60;68.20;;;;;;4996012;28;20400;-59
2022/03/23 11:29:48;;;;;;;11.50;4.28;;;18.50;68.30;;;;;;4979735;28;20046;-58
2022/03/23 11:32:24;;;;;;;11.32;3.53;;;18.60;68.20;;;;;;4996014;28;20077;-58
2022/03/23 11:34:52;;;;;;;5.78;3.17;;;18.60;67.50;;;;;;4996091;28;20034;-58
2022/03/23 11:37:23;;;;;;;10.38;4.30;;;18.70;65.90;;;;;;5013515;28;20046;-58
2022/03/23 11:39:51;;;;;;;8.63;4.03;;;18.70;66.30;;;;;;4996100;28;20045;-58
2022/03/23 11:42:21;;;;;;;15.98;3.75;;;18.70;65.70;;;;;;5013555;28;20046;-59
2022/03/23 11:44:53;;;;;;;15.05;3.80;;;18.60;66.20;;;;;;4996025;28;20065;-58
2022/03/23 11:47:35;;;;;;;8.23;3.80;;;18.70;66.20;;;;;;4995842;28;20052;-58
2022/03/23 11:50:21;;;;;;;10.35;4.28;;;18.80;63.90;;;;;;4979949;28;20575;-58
2022/03/23 11:53:03;;;;;;;10.73;3.75;;;18.80;63.00;;;;;;5013533;28;20037;-58
2022/03/23 11:55:45;;;;;;;9.77;3.65;;;18.60;63.90;;;;;;5013529;28;20132;-58
2022/03/23 11:58:16;;;;;;;10.05;3.40;;;18.60;64.60;;;;;;4996069;28;20140;-58
2022/03/23 12:00:46;;;;;;;10.02;5.03;;;18.60;65.10;;;;;;5015999;28;20034;-58
2022/03/23 12:03:16;;;;;;;9.95;3.85;;;18.60;67.30;;;;;;4999654;28;20373;-58
2022/03/23 12:05:52;;;;;;;11.52;3.10;;;18.60;64.20;;;;;;5016704;28;20065;-58
2022/03/23 12:08:52;;;;;;;11.30;3.80;;;18.50;64.80;;;;;;4999508;28;20059;-58
2022/03/23 12:11:35;;;;;;;9.38;4.05;;;18.30;63.20;;;;;;4982618;28;20496;-58
2022/03/23 12:14:05;;;;;;;8.75;3.55;;;18.30;62.50;;;;;;4999382;28;20038;-58
2022/03/23 12:16:51;;;;;;;6.90;3.67;;;18.30;63.50;;;;;;5016886;28;20053;-58
2022/03/23 12:20:03;;;;;;;10.27;4.93;;;18.40;63.00;;;;;;4998468;28;20062;-58
2022/03/23 12:22:33;;;;;;;7.00;3.22;;;18.50;64.10;;;;;;5016551;28;20436;-58
2022/03/23 12:25:06;;;;;;;9.18;4.18;;;18.50;63.90;;;;;;5016704;28;20492;-58
2022/03/23 12:27:49;;;;;;;8.23;4.10;;;18.40;64.90;;;;;;5016476;28;20037;-58
2022/03/23 12:30:38;;;;;;;7.55;3.47;;;18.40;64.20;;;;;;5016303;28;20053;-58
2022/03/23 12:33:11;;;;;;;7.53;3.75;;;18.50;62.80;;;;;;4999065;28;20050;-58
2022/03/23 12:35:39;;;;;;;14.13;4.95;;;18.40;62.70;;;;;;4982900;28;20042;-58
2022/03/23 12:38:19;;;;;;;5.97;3.63;;;18.20;60.60;;;;;;4998584;28;20054;-58
2022/03/23 12:40:48;;;;;;;7.07;3.78;;;18.10;62.20;;;;;;5016290;28;20049;-58
2022/03/23 12:43:35;;;;;;;8.25;4.47;;;18.10;63.00;;;;;;4999260;28;20524;-58
2022/03/23 12:46:04;;;;;;;11.25;3.92;;;18.10;64.10;;;;;;4999022;28;20042;-58
2022/03/23 12:59:51;;;;;;;7.55;4.45;;;17.90;62.80;;;;;;5016133;28;19957;-58
2022/03/23 13:02:24;;;;;;;10.35;4.28;;;17.90;62.30;;;;;;5015756;28;20085;-58
2022/03/23 13:04:52;;;;;;;11.07;4.45;;;17.80;62.10;;;;;;5015931;28;20061;-58
2022/03/23 13:07:29;;;;;;;7.40;3.45;;;17.70;63.80;;;;;;4998229;28;20053;-58
2022/03/23 13:10:06;;;;;;;12.25;4.63;;;17.70;64.40;;;;;;5015440;28;20139;-58
2022/03/23 13:12:34;;;;;;;8.05;4.18;;;17.70;63.40;;;;;;4998545;28;20042;-58
2022/03/23 13:15:12;;;;;;;13.30;4.28;;;17.70;63.00;;;;;;4965955;28;20050;-58
2022/03/23 13:17:41;;;;;;;10.90;4.18;;;17.70;63.60;;;;;;5015481;28;20443;-58
2022/03/23 13:20:12;;;;;;;8.93;4.97;;;17.60;65.10;;;;;;5015242;28;20053;-58
2022/03/23 13:22:40;;;;;;;9.75;5.22;;;17.60;66.90;;;;;;4998024;28;20042;-58